Terminal Aerodrome Forecast
Issued by NWS Bismarck, ND

Home | Current Version | Previous Version | Graphics & Text | Print | Product List | Glossary On
Versions: 1 2 3 4 5 6 7 8 9 10 11 12 13 14 15 16 17
217
FTUS43 KBIS 161124
TAFISN
TAF
KISN 161124Z 1612/1712 23005KT P6SM SKC WS020/28035KT
     FM161600 27012KT P6SM FEW250
     FM170100 25005KT P6SM SKC
     FM170700 22005KT P6SM SKC WS020/26035KT=

USA.gov is the U.S. government's official web portal to all federal, state and local government web resources and services.